Time;durP1;ratioP1;P1;durP2;ratioP2;P2;SDS_P1;SDS_P2;PMS_P1;PMS_P2;Temp;Humidity;BMP_temperature;BMP_pressure;BME280_temperature;BME280_humidity;BME280_pressure;Samples;Min_cycle;Max_cycle;Signal;HPM_P1;HPM_P2
2022/06/06 00:00:44;;;;;;;32.27;14.93;;;;;;;;;;5059690;28;20037;-67
2022/06/06 00:03:11;;;;;;;67.73;21.87;;;;;;;;;;5057284;28;20049;-67
2022/06/06 00:05:37;;;;;;;63.83;20.83;;;;;;;;;;5057948;28;20046;-67
2022/06/06 00:08:04;;;;;;;41.83;20.77;;;;;;;;;;5058288;28;20132;-67
2022/06/06 00:10:30;;;;;;;39.70;22.23;;;;;;;;;;5062093;28;20064;-66
2022/06/06 00:12:56;;;;;;;32.50;19.43;;;;;;;;;;5057709;28;20574;-66
2022/06/06 00:15:22;;;;;;;36.73;20.97;;;;;;;;;;5058000;28;20044;-66
2022/06/06 00:17:49;;;;;;;24.77;16.90;;;;;;;;;;5060395;28;20059;-66
2022/06/06 00:20:16;;;;;;;29.70;19.53;;;;;;;;;;5056009;28;20113;-66
2022/06/06 00:22:42;;;;;;;22.33;14.97;;;;;;;;;;5055615;28;20086;-66
2022/06/06 00:25:08;;;;;;;16.73;12.17;;;;;;;;;;5059301;28;20152;-67
2022/06/06 00:27:34;;;;;;;27.17;16.73;;;;;;;;;;5057618;28;20048;-66
2022/06/06 00:30:00;;;;;;;21.03;13.57;;;;;;;;;;5060652;28;20037;-66
2022/06/06 00:35:11;;;;;;;19.37;12.50;;;;;;;;;;5058995;28;20488;-66
2022/06/06 00:37:42;;;;;;;20.70;13.20;;;;;;;;;;5058167;28;20124;-66
2022/06/06 00:40:09;;;;;;;27.90;15.17;;;;;;;;;;5055958;28;20056;-66
2022/06/06 00:42:36;;;;;;;19.73;13.27;;;;;;;;;;5058452;28;20056;-66
2022/06/06 00:45:20;;;;;;;16.67;11.97;;;;;;;;;;5056633;28;20045;-66
2022/06/06 00:47:54;;;;;;;24.47;14.70;;;;;;;;;;5057776;28;20041;-66
2022/06/06 00:50:22;;;;;;;22.00;14.20;;;;;;;;;;5059235;28;20048;-66
2022/06/06 00:52:50;;;;;;;19.83;12.93;;;;;;;;;;5057241;28;20048;-66
2022/06/06 00:55:25;;;;;;;21.93;13.53;;;;;;;;;;5056967;28;20052;-66
2022/06/06 00:57:56;;;;;;;23.17;15.17;;;;;;;;;;5059350;28;20047;-66
2022/06/06 01:00:22;;;;;;;28.33;16.77;;;;;;;;;;5057589;28;20036;-66
2022/06/06 01:02:51;;;;;;;19.40;12.97;;;;;;;;;;5058892;28;20159;-66
2022/06/06 01:05:18;;;;;;;22.90;14.20;;;;;;;;;;5057003;28;20041;-66
2022/06/06 01:07:44;;;;;;;25.93;15.90;;;;;;;;;;5059010;28;20094;-66
2022/06/06 01:10:11;;;;;;;27.43;16.23;;;;;;;;;;5069188;28;20036;-66
2022/06/06 01:12:38;;;;;;;27.57;15.87;;;;;;;;;;5069129;28;20487;-66
2022/06/06 01:15:08;;;;;;;29.90;16.50;;;;;;;;;;5049232;28;20077;-66
2022/06/06 01:17:44;;;;;;;22.27;14.60;;;;;;;;;;5032033;28;20041;-66
2022/06/06 01:20:17;;;;;;;25.27;16.20;;;;;;;;;;5049362;28;20056;-66
2022/06/06 01:22:52;;;;;;;33.67;20.13;;;;;;;;;;5068010;28;20119;-66
2022/06/06 01:25:33;;;;;;;26.17;16.67;;;;;;;;;;5068850;28;20136;-66
2022/06/06 01:27:59;;;;;;;21.07;14.63;;;;;;;;;;5067107;28;20075;-66
2022/06/06 01:30:44;;;;;;;28.50;17.83;;;;;;;;;;5068137;28;20490;-66
2022/06/06 01:33:11;;;;;;;35.67;21.13;;;;;;;;;;5068316;28;20102;-66
2022/06/06 01:35:40;;;;;;;56.13;30.53;;;;;;;;;;5056162;28;20178;-67
2022/06/06 01:38:06;;;;;;;68.60;31.07;;;;;;;;;;5052198;28;20052;-66
2022/06/06 01:40:37;;;;;;;59.07;31.10;;;;;;;;;;5057477;28;20422;-66
2022/06/06 01:43:07;;;;;;;80.57;36.70;;;;;;;;;;5073286;28;20048;-66
2022/06/06 01:45:41;;;;;;;75.83;37.60;;;;;;;;;;5073095;28;20044;-66
2022/06/06 01:48:09;;;;;;;72.20;37.23;;;;;;;;;;5056505;28;20155;-66
2022/06/06 01:50:37;;;;;;;73.63;38.30;;;;;;;;;;5064509;28;20045;-66
2022/06/06 01:53:05;;;;;;;91.10;40.67;;;;;;;;;;5062112;28;20041;-66
2022/06/06 01:55:32;;;;;;;124.00;49.17;;;;;;;;;;5060786;28;20052;-66
2022/06/06 01:58:00;;;;;;;90.03;42.03;;;;;;;;;;5061959;28;20029;-66
2022/06/06 02:00:27;;;;;;;98.13;44.30;;;;;;;;;;5061745;28;20052;-66
2022/06/06 02:02:53;;;;;;;113.17;49.03;;;;;;;;;;5059114;28;20142;-66
2022/06/06 02:05:20;;;;;;;117.13;46.70;;;;;;;;;;5062207;28;20576;-66
2022/06/06 02:07:46;;;;;;;97.97;46.10;;;;;;;;;;5060566;28;20037;-66
2022/06/06 02:10:13;;;;;;;83.57;43.63;;;;;;;;;;5059984;28;20041;-66
2022/06/06 02:12:40;;;;;;;97.20;45.97;;;;;;;;;;5062038;28;20051;-66
2022/06/06 02:15:08;;;;;;;125.60;49.87;;;;;;;;;;5062431;28;20048;-66
2022/06/06 02:17:34;;;;;;;76.30;38.17;;;;;;;;;;5071222;28;20098;-66
2022/06/06 02:20:01;;;;;;;73.33;36.53;;;;;;;;;;5068777;28;20036;-66
2022/06/06 02:22:28;;;;;;;71.50;36.70;;;;;;;;;;5063698;28;20101;-66
2022/06/06 02:24:55;;;;;;;65.60;33.30;;;;;;;;;;5072131;28;20047;-66
2022/06/06 02:27:21;;;;;;;85.27;36.73;;;;;;;;;;5068430;28;20040;-66
2022/06/06 02:29:47;;;;;;;67.70;32.60;;;;;;;;;;5056335;28;20032;-66
2022/06/06 02:32:13;;;;;;;95.10;40.20;;;;;;;;;;5060006;28;20045;-66
2022/06/06 02:34:39;;;;;;;96.03;37.03;;;;;;;;;;5052744;28;20075;-66
2022/06/06 02:37:05;;;;;;;102.37;39.47;;;;;;;;;;5052687;28;20056;-67
2022/06/06 02:39:31;;;;;;;119.80;42.13;;;;;;;;;;5051941;28;20056;-66
2022/06/06 02:41:57;;;;;;;107.50;41.73;;;;;;;;;;5051981;28;20060;-66
2022/06/06 02:44:24;;;;;;;93.33;38.20;;;;;;;;;;5052105;28;20091;-66
2022/06/06 02:46:50;;;;;;;108.37;43.30;;;;;;;;;;5050307;28;20053;-66
2022/06/06 02:49:17;;;;;;;109.70;42.43;;;;;;;;;;5067322;28;20071;-66
2022/06/06 02:51:43;;;;;;;138.17;44.37;;;;;;;;;;5072156;28;20086;-66
2022/06/06 02:54:09;;;;;;;120.13;41.13;;;;;;;;;;5070653;28;20156;-66
2022/06/06 02:56:35;;;;;;;130.60;42.93;;;;;;;;;;5054687;28;20052;-66
2022/06/06 02:59:03;;;;;;;120.77;44.77;;;;;;;;;;5051064;28;20047;-66
2022/06/06 03:01:29;;;;;;;106.87;41.87;;;;;;;;;;5051747;28;20049;-66
2022/06/06 03:03:55;;;;;;;114.10;42.50;;;;;;;;;;5060253;28;20041;-66
2022/06/06 03:06:24;;;;;;;108.03;39.30;;;;;;;;;;5070959;28;20036;-66
2022/06/06 03:09:05;;;;;;;87.17;32.13;;;;;;;;;;5071087;28;20047;-66
2022/06/06 03:11:50;;;;;;;67.90;26.07;;;;;;;;;;5071250;28;20052;-66
2022/06/06 03:14:25;;;;;;;72.40;24.80;;;;;;;;;;5071291;28;20491;-66
2022/06/06 03:23:06;;;;;;;53.03;21.87;;;;;;;;;;5051160;28;20041;-66
2022/06/06 03:25:52;;;;;;;61.93;22.53;;;;;;;;;;5052612;28;20041;-66
2022/06/06 03:28:27;;;;;;;47.63;20.00;;;;;;;;;;5029398;28;20076;-67
2022/06/06 03:31:08;;;;;;;55.93;20.43;;;;;;;;;;5050783;28;20041;-66
2022/06/06 03:33:40;;;;;;;63.90;20.73;;;;;;;;;;5066871;28;20048;-66
2022/06/06 03:36:12;;;;;;;62.27;20.70;;;;;;;;;;5051131;28;20127;-67
2022/06/06 03:38:47;;;;;;;53.40;19.63;;;;;;;;;;5051101;28;20041;-67
2022/06/06 03:41:32;;;;;;;42.13;17.53;;;;;;;;;;5049412;28;20465;-66
2022/06/06 03:43:58;;;;;;;50.20;17.47;;;;;;;;;;5032853;28;20048;-67
2022/06/06 03:46:33;;;;;;;39.10;16.17;;;;;;;;;;5058616;28;20044;-66
2022/06/06 03:49:12;;;;;;;56.47;18.23;;;;;;;;;;5064192;28;20426;-66
2022/06/06 03:51:44;;;;;;;39.77;16.03;;;;;;;;;;5032802;28;20044;-66
2022/06/06 03:54:13;;;;;;;37.53;15.90;;;;;;;;;;5048819;28;20427;-66
2022/06/06 03:56:42;;;;;;;47.73;17.80;;;;;;;;;;5058834;28;20044;-66
2022/06/06 03:59:09;;;;;;;47.60;18.03;;;;;;;;;;5057471;28;20457;-66
2022/06/06 04:01:37;;;;;;;47.80;18.93;;;;;;;;;;5055146;28;20041;-66
2022/06/06 04:04:04;;;;;;;55.17;21.37;;;;;;;;;;5050473;28;20069;-66
2022/06/06 04:06:31;;;;;;;44.47;19.00;;;;;;;;;;5049957;28;20045;-66
2022/06/06 04:08:57;;;;;;;55.53;20.30;;;;;;;;;;5064859;28;20093;-66
2022/06/06 04:11:27;;;;;;;59.43;19.90;;;;;;;;;;5061752;28;20051;-66
2022/06/06 04:14:11;;;;;;;49.47;19.53;;;;;;;;;;5054789;28;20399;-66
2022/06/06 04:16:37;;;;;;;52.57;20.47;;;;;;;;;;5069564;28;20052;-66
2022/06/06 04:19:06;;;;;;;54.93;22.07;;;;;;;;;;5070029;28;20052;-66
2022/06/06 04:21:41;;;;;;;52.77;21.23;;;;;;;;;;5053429;28;20048;-66
2022/06/06 04:24:16;;;;;;;64.23;23.70;;;;;;;;;;5048677;28;21008;-66
2022/06/06 04:26:49;;;;;;;56.00;22.80;;;;;;;;;;5049076;28;20056;-66
2022/06/06 04:29:25;;;;;;;50.80;21.93;;;;;;;;;;5049880;28;20136;-66
2022/06/06 04:32:00;;;;;;;55.00;21.93;;;;;;;;;;5052831;28;20040;-66
2022/06/06 04:34:45;;;;;;;46.43;22.63;;;;;;;;;;5060698;28;20058;-66
2022/06/06 04:37:17;;;;;;;47.37;21.50;;;;;;;;;;5061789;28;20040;-63
2022/06/06 04:39:51;;;;;;;50.70;22.23;;;;;;;;;;5069336;28;20048;-63
2022/06/06 04:42:46;;;;;;;46.50;21.73;;;;;;;;;;5068293;28;21004;-63
2022/06/06 04:45:18;;;;;;;62.03;23.83;;;;;;;;;;5032319;28;20053;-63
2022/06/06 04:47:44;;;;;;;57.93;22.03;;;;;;;;;;5068796;28;20052;-63
2022/06/06 04:50:15;;;;;;;44.77;19.73;;;;;;;;;;5062183;28;20087;-63
2022/06/06 04:52:42;;;;;;;46.50;19.87;;;;;;;;;;5057271;28;20068;-63
2022/06/06 04:55:09;;;;;;;45.73;20.03;;;;;;;;;;5059131;28;20040;-63
2022/06/06 04:57:36;;;;;;;43.23;20.67;;;;;;;;;;5066616;28;20418;-63
2022/06/06 05:00:04;;;;;;;54.60;21.33;;;;;;;;;;5068189;28;20109;-63
2022/06/06 05:02:31;;;;;;;56.50;21.43;;;;;;;;;;5065999;28;20045;-63
2022/06/06 05:04:57;;;;;;;42.93;19.13;;;;;;;;;;5049310;28;20049;-63
2022/06/06 05:07:43;;;;;;;48.70;19.83;;;;;;;;;;5049431;28;20335;-63
2022/06/06 05:10:20;;;;;;;47.70;19.33;;;;;;;;;;5038397;28;20998;-63
2022/06/06 05:13:05;;;;;;;39.20;18.60;;;;;;;;;;5060635;28;20051;-63
2022/06/06 05:15:50;;;;;;;52.83;20.73;;;;;;;;;;5065293;28;20052;-63
2022/06/06 05:18:25;;;;;;;47.40;18.83;;;;;;;;;;5059920;28;20048;-63
2022/06/06 05:21:08;;;;;;;37.23;17.83;;;;;;;;;;5062669;28;20510;-63
2022/06/06 05:23:37;;;;;;;36.80;17.70;;;;;;;;;;5067304;28;20170;-63
2022/06/06 05:26:14;;;;;;;34.23;15.83;;;;;;;;;;5048390;28;20131;-63
2022/06/06 05:28:40;;;;;;;31.50;15.53;;;;;;;;;;5048197;28;20443;-63
2022/06/06 05:31:07;;;;;;;33.73;18.03;;;;;;;;;;5047988;28;20075;-63
2022/06/06 05:33:37;;;;;;;34.07;18.00;;;;;;;;;;5048268;28;20049;-63
2022/06/06 05:36:12;;;;;;;35.50;16.77;;;;;;;;;;5048099;28;20471;-63
2022/06/06 05:38:38;;;;;;;36.80;16.97;;;;;;;;;;5047853;28;20514;-63
2022/06/06 05:41:04;;;;;;;38.00;17.57;;;;;;;;;;5048017;28;20082;-63
2022/06/06 05:43:33;;;;;;;41.43;17.10;;;;;;;;;;5047984;28;20053;-63
2022/06/06 05:45:59;;;;;;;40.00;18.10;;;;;;;;;;5047869;28;20060;-63
2022/06/06 05:48:50;;;;;;;33.03;16.40;;;;;;;;;;5048177;28;20068;-63
2022/06/06 05:51:41;;;;;;;38.57;18.47;;;;;;;;;;5046775;28;20091;-63
2022/06/06 05:54:19;;;;;;;41.50;17.37;;;;;;;;;;5048114;28;20045;-63
2022/06/06 05:56:52;;;;;;;36.67;16.70;;;;;;;;;;5051600;28;20052;-63
2022/06/06 05:59:24;;;;;;;36.85;16.58;;;;;;;;;;5067912;28;20060;-63
2022/06/06 06:02:15;;;;;;;30.07;15.80;;;;;;;;;;5068001;28;20200;-63
2022/06/06 06:04:59;;;;;;;22.43;13.70;;;;;;;;;;5068114;28;20049;-63
2022/06/06 06:07:34;;;;;;;23.27;11.93;;;;;;;;;;5067885;28;20044;-64
2022/06/06 06:10:03;;;;;;;25.27;12.83;;;;;;;;;;5067706;28;20521;-64
2022/06/06 06:12:33;;;;;;;23.30;11.70;;;;;;;;;;5066048;28;20059;-64
2022/06/06 06:15:05;;;;;;;25.60;13.20;;;;;;;;;;5065979;28;20087;-63
2022/06/06 06:17:33;;;;;;;27.33;13.33;;;;;;;;;;5067374;28;20041;-64
2022/06/06 06:20:09;;;;;;;28.07;14.17;;;;;;;;;;5067432;28;20114;-64
2022/06/06 06:22:40;;;;;;;26.17;13.70;;;;;;;;;;5068123;28;20044;-64
2022/06/06 06:25:08;;;;;;;29.20;13.30;;;;;;;;;;5071324;28;20055;-63
2022/06/06 06:27:34;;;;;;;31.53;14.73;;;;;;;;;;5056140;28;20079;-63
2022/06/06 06:30:01;;;;;;;24.70;13.50;;;;;;;;;;5051055;28;20075;-64
2022/06/06 06:32:47;;;;;;;29.40;15.33;;;;;;;;;;5051009;28;20148;-63
2022/06/06 06:35:16;;;;;;;24.20;13.63;;;;;;;;;;5050743;28;20052;-63
2022/06/06 06:37:54;;;;;;;27.10;13.47;;;;;;;;;;5049589;28;20049;-63
2022/06/06 06:40:34;;;;;;;23.00;13.13;;;;;;;;;;5050983;28;20051;-63
2022/06/06 06:43:03;;;;;;;19.03;12.47;;;;;;;;;;5051066;28;20110;-63
2022/06/06 06:45:46;;;;;;;20.17;11.13;;;;;;;;;;5049793;28;20064;-64
2022/06/06 06:48:13;;;;;;;20.73;10.90;;;;;;;;;;5049486;28;20099;-63
2022/06/06 06:50:45;;;;;;;21.13;11.73;;;;;;;;;;5050896;28;20056;-63
2022/06/06 06:53:35;;;;;;;19.17;11.47;;;;;;;;;;5049307;28;20098;-63
2022/06/06 06:56:09;;;;;;;20.83;12.27;;;;;;;;;;5049949;28;20075;-63
2022/06/06 06:58:52;;;;;;;19.57;11.33;;;;;;;;;;5050556;28;20051;-63
2022/06/06 07:01:26;;;;;;;22.60;12.60;;;;;;;;;;5050282;28;20041;-63
2022/06/06 07:09:35;;;;;;;23.33;12.77;;;;;;;;;;5050364;28;20045;-63
2022/06/06 07:12:19;;;;;;;20.47;12.00;;;;;;;;;;5049382;28;20049;-63
2022/06/06 07:15:04;;;;;;;24.67;13.97;;;;;;;;;;5050523;28;20349;-63
2022/06/06 07:17:34;;;;;;;24.50;14.37;;;;;;;;;;5050218;28;20057;-63
2022/06/06 07:20:05;;;;;;;23.73;13.70;;;;;;;;;;5050547;28;20091;-63
2022/06/06 07:22:59;;;;;;;30.13;15.27;;;;;;;;;;5049434;28;20144;-63
2022/06/06 07:25:22;;;;;;;25.80;13.50;;;;;;;;;;5050164;28;20044;-63
2022/06/06 07:27:48;;;;;;;25.97;14.60;;;;;;;;;;5050619;28;20098;-63
2022/06/06 07:30:15;;;;;;;27.27;15.80;;;;;;;;;;5049975;28;20503;-63
2022/06/06 07:33:00;;;;;;;22.90;12.53;;;;;;;;;;5050202;28;20041;-63
2022/06/06 07:35:45;;;;;;;22.23;14.57;;;;;;;;;;5049018;28;20055;-63
2022/06/06 07:38:23;;;;;;;25.60;13.63;;;;;;;;;;5032153;28;20063;-63
2022/06/06 07:41:16;;;;;;;19.93;11.03;;;;;;;;;;5048792;28;20386;-63
2022/06/06 07:43:51;;;;;;;21.17;11.17;;;;;;;;;;5035581;28;20507;-63
2022/06/06 07:46:38;;;;;;;19.30;10.80;;;;;;;;;;5048553;28;20099;-63
2022/06/06 07:49:19;;;;;;;17.80;10.80;;;;;;;;;;5048653;28;20116;-63
2022/06/06 07:52:03;;;;;;;17.77;10.27;;;;;;;;;;5031905;28;20557;-63
2022/06/06 07:54:36;;;;;;;17.90;10.33;;;;;;;;;;5048539;28;20411;-63
2022/06/06 07:57:07;;;;;;;14.90;8.53;;;;;;;;;;5048628;28;20458;-63
2022/06/06 07:59:39;;;;;;;12.57;7.77;;;;;;;;;;5049201;28;20379;-63
2022/06/06 08:02:24;;;;;;;11.80;7.60;;;;;;;;;;5049542;28;20144;-63
2022/06/06 08:04:59;;;;;;;13.90;6.93;;;;;;;;;;5049519;28;20049;-63
2022/06/06 08:07:34;;;;;;;9.67;6.50;;;;;;;;;;5049864;28;20052;-63
2022/06/06 08:10:24;;;;;;;11.43;6.73;;;;;;;;;;5069291;28;20135;-63
2022/06/06 08:13:13;;;;;;;10.97;6.80;;;;;;;;;;5067894;28;20052;-63
2022/06/06 08:15:42;;;;;;;7.93;4.50;;;;;;;;;;5058924;28;20135;-63
2022/06/06 08:18:14;;;;;;;10.17;4.57;;;;;;;;;;5069358;28;20044;-63
2022/06/06 08:20:50;;;;;;;9.00;3.70;;;;;;;;;;5068861;28;20120;-63
2022/06/06 08:23:18;;;;;;;7.37;3.53;;;;;;;;;;5068191;28;20044;-63
2022/06/06 08:25:44;;;;;;;5.90;3.10;;;;;;;;;;5069265;28;20098;-63
2022/06/06 08:28:12;;;;;;;7.00;3.30;;;;;;;;;;5068537;28;20055;-62
2022/06/06 08:30:39;;;;;;;5.97;2.83;;;;;;;;;;5069047;28;20151;-63
2022/06/06 08:33:05;;;;;;;6.43;2.03;;;;;;;;;;5068942;28;20072;-63
2022/06/06 08:35:39;;;;;;;7.73;2.47;;;;;;;;;;5067728;28;20083;-63
2022/06/06 08:38:05;;;;;;;7.77;1.80;;;;;;;;;;5068477;28;20040;-63
2022/06/06 08:40:31;;;;;;;8.33;1.70;;;;;;;;;;5068158;28;20110;-63
2022/06/06 08:43:17;;;;;;;6.20;1.83;;;;;;;;;;5068666;28;20049;-63
2022/06/06 08:45:50;;;;;;;6.23;2.10;;;;;;;;;;5068701;28;20410;-63
2022/06/06 08:48:35;;;;;;;4.60;2.30;;;;;;;;;;5067373;28;20127;-63
2022/06/06 08:51:11;;;;;;;5.90;2.00;;;;;;;;;;5058040;28;20136;-62
2022/06/06 08:53:44;;;;;;;3.90;1.70;;;;;;;;;;5048557;28;20147;-62
2022/06/06 08:56:28;;;;;;;7.78;1.92;;;;;;;;;;5048480;28;20067;-62
2022/06/06 08:59:04;;;;;;;6.70;1.70;;;;;;;;;;5048692;28;20042;-62
2022/06/06 09:01:30;;;;;;;6.33;1.50;;;;;;;;;;5046913;28;20060;-62
2022/06/06 09:04:15;;;;;;;4.47;1.50;;;;;;;;;;5048779;28;20131;-62
2022/06/06 09:06:59;;;;;;;5.20;1.60;;;;;;;;;;5048802;28;20423;-62
2022/06/06 09:09:44;;;;;;;6.70;1.70;;;;;;;;;;5048230;28;20604;-63
2022/06/06 09:12:10;;;;;;;7.53;2.17;;;;;;;;;;5048426;28;20071;-63
2022/06/06 09:14:59;;;;;;;8.00;1.80;;;;;;;;;;5048571;28;20414;-62
2022/06/06 09:17:44;;;;;;;7.57;2.03;;;;;;;;;;5011594;28;20051;-63
2022/06/06 09:20:25;;;;;;;4.33;1.40;;;;;;;;;;5047630;28;20480;-62
2022/06/06 09:23:04;;;;;;;6.80;2.40;;;;;;;;;;5048385;28;20140;-62
2022/06/06 09:25:33;;;;;;;5.77;1.73;;;;;;;;;;5048089;28;20049;-62
2022/06/06 09:28:18;;;;;;;5.43;2.40;;;;;;;;;;5048329;28;20132;-62
2022/06/06 09:31:00;;;;;;;3.97;1.83;;;;;;;;;;5048075;28;20480;-62
2022/06/06 09:33:45;;;;;;;5.13;1.90;;;;;;;;;;5047838;28;20474;-62
2022/06/06 09:36:40;;;;;;;8.90;1.80;;;;;;;;;;5048178;28;20479;-62
2022/06/06 09:39:15;;;;;;;5.50;1.40;;;;;;;;;;5043249;28;20049;-62
2022/06/06 09:41:46;;;;;;;4.77;1.50;;;;;;;;;;5056278;28;20102;-62
2022/06/06 09:44:15;;;;;;;4.13;1.60;;;;;;;;;;5067625;28;20054;-62
2022/06/06 09:47:06;;;;;;;5.77;1.50;;;;;;;;;;5066939;28;20368;-62
2022/06/06 09:49:48;;;;;;;5.07;1.17;;;;;;;;;;5067395;28;20052;-62
2022/06/06 09:52:33;;;;;;;8.40;1.30;;;;;;;;;;5067697;28;20052;-62
2022/06/06 10:01:11;;;;;;;5.35;2.03;;;;;;;;;;5051367;28;20068;-62
2022/06/06 10:03:56;;;;;;;4.70;2.07;;;;;;;;;;5051584;28;20091;-62
2022/06/06 10:06:40;;;;;;;8.73;1.97;;;;;;;;;;5051724;28;20072;-62
2022/06/06 10:09:25;;;;;;;4.23;1.50;;;;;;;;;;5057853;28;20097;-62
2022/06/06 10:12:09;;;;;;;3.83;1.30;;;;;;;;;;5071704;28;20053;-62
2022/06/06 10:14:54;;;;;;;5.47;1.33;;;;;;;;;;5071485;28;20040;-62
2022/06/06 10:17:26;;;;;;;7.47;1.60;;;;;;;;;;5070065;28;20052;-62
2022/06/06 10:20:11;;;;;;;5.25;1.38;;;;;;;;;;5070914;28;20044;-62
2022/06/06 10:22:37;;;;;;;6.57;1.40;;;;;;;;;;5070798;28;20051;-63
2022/06/06 10:25:06;;;;;;;5.97;1.53;;;;;;;;;;5054278;28;20045;-62
2022/06/06 10:27:41;;;;;;;4.53;1.80;;;;;;;;;;5051425;28;20041;-62
2022/06/06 10:30:10;;;;;;;3.67;2.07;;;;;;;;;;5051464;28;20084;-62
2022/06/06 10:32:49;;;;;;;5.70;2.63;;;;;;;;;;5051277;28;20087;-62
2022/06/06 10:35:24;;;;;;;8.83;1.93;;;;;;;;;;5051289;28;20407;-62
2022/06/06 10:38:09;;;;;;;5.27;2.60;;;;;;;;;;5049939;28;20102;-63
2022/06/06 10:40:44;;;;;;;8.77;3.07;;;;;;;;;;5050916;28;20048;-64
2022/06/06 10:43:22;;;;;;;8.90;4.87;;;;;;;;;;5050512;28;20059;-64
2022/06/06 10:45:52;;;;;;;5.03;2.20;;;;;;;;;;5049734;28;20059;-64
2022/06/06 10:48:37;;;;;;;6.10;2.03;;;;;;;;;;5049436;28;20582;-63
2022/06/06 10:51:37;;;;;;;4.77;1.70;;;;;;;;;;5059201;28;20029;-63
2022/06/06 10:54:14;;;;;;;10.87;4.03;;;;;;;;;;5070150;28;20047;-64
2022/06/06 10:56:55;;;;;;;6.53;3.37;;;;;;;;;;5069246;28;20052;-63
2022/06/06 10:59:40;;;;;;;7.33;4.30;;;;;;;;;;5070637;28;20136;-63
2022/06/06 11:02:15;;;;;;;9.23;3.30;;;;;;;;;;5070834;28;20047;-63
2022/06/06 11:04:50;;;;;;;5.90;3.10;;;;;;;;;;5069734;28;20049;-63
2022/06/06 11:07:16;;;;;;;7.73;3.03;;;;;;;;;;5049408;28;20051;-63
2022/06/06 11:09:48;;;;;;;6.40;4.03;;;;;;;;;;5049146;28;20520;-63
2022/06/06 11:12:33;;;;;;;6.00;4.10;;;;;;;;;;5050707;28;20052;-63
2022/06/06 11:15:01;;;;;;;5.07;2.40;;;;;;;;;;5049259;28;20076;-63
2022/06/06 11:17:45;;;;;;;9.87;2.97;;;;;;;;;;5050706;28;20045;-63
2022/06/06 11:20:29;;;;;;;4.13;3.63;;;;;;;;;;5050035;28;20525;-63
2022/06/06 11:23:00;;;;;;;7.90;4.30;;;;;;;;;;5049054;28;20056;-63
2022/06/06 11:25:27;;;;;;;7.17;3.60;;;;;;;;;;5049292;28;20048;-63
2022/06/06 11:28:11;;;;;;;4.57;2.90;;;;;;;;;;5050129;28;20041;-63
2022/06/06 11:30:50;;;;;;;7.27;2.50;;;;;;;;;;5049120;28;20049;-64
2022/06/06 11:33:35;;;;;;;6.80;3.50;;;;;;;;;;5049936;28;20084;-64
2022/06/06 11:36:20;;;;;;;8.60;2.53;;;;;;;;;;5048718;28;20442;-64
2022/06/06 11:39:04;;;;;;;4.53;2.30;;;;;;;;;;5050305;28;20392;-64
2022/06/06 11:41:36;;;;;;;4.77;2.63;;;;;;;;;;5050009;28;20057;-64
2022/06/06 11:44:14;;;;;;;5.50;2.70;;;;;;;;;;5031992;28;20128;-64
2022/06/06 11:46:49;;;;;;;5.33;3.00;;;;;;;;;;5050145;28;20163;-64
2022/06/06 11:49:18;;;;;;;4.40;2.20;;;;;;;;;;5049874;28;20049;-64
2022/06/06 11:51:56;;;;;;;3.37;1.90;;;;;;;;;;5049667;28;20045;-65
2022/06/06 11:54:36;;;;;;;4.03;1.30;;;;;;;;;;5049688;28;20049;-65
2022/06/06 11:57:12;;;;;;;1.80;0.87;;;;;;;;;;5048703;28;20465;-65
2022/06/06 11:59:44;;;;;;;3.50;1.03;;;;;;;;;;5049733;28;20041;-65
2022/06/06 12:02:29;;;;;;;3.67;1.27;;;;;;;;;;5064169;28;20059;-65
2022/06/06 12:04:55;;;;;;;3.23;1.10;;;;;;;;;;5065581;28;20138;-64
2022/06/06 12:07:40;;;;;;;4.13;0.93;;;;;;;;;;5049437;28;20170;-64
2022/06/06 12:10:22;;;;;;;1.17;0.57;;;;;;;;;;5049736;28;20045;-64
2022/06/06 12:13:02;;;;;;;2.28;0.95;;;;;;;;;;5049711;28;20050;-64
2022/06/06 12:15:34;;;;;;;2.10;0.77;;;;;;;;;;5047642;28;20102;-64
2022/06/06 12:18:21;;;;;;;1.40;0.57;;;;;;;;;;5049370;28;20397;-64
2022/06/06 12:21:10;;;;;;;1.60;0.50;;;;;;;;;;5049042;28;20318;-64
2022/06/06 12:23:55;;;;;;;1.77;0.60;;;;;;;;;;5038766;28;20053;-64
2022/06/06 12:26:33;;;;;;;1.63;0.60;;;;;;;;;;5048684;28;20111;-63
2022/06/06 12:29:09;;;;;;;3.03;0.60;;;;;;;;;;5048893;28;20061;-63
2022/06/06 12:31:53;;;;;;;3.20;0.70;;;;;;;;;;5068894;28;20063;-63
2022/06/06 12:34:30;;;;;;;5.40;1.03;;;;;;;;;;5069156;28;20040;-63
2022/06/06 12:37:02;;;;;;;3.10;1.00;;;;;;;;;;5068626;28;20052;-63
2022/06/06 12:39:31;;;;;;;2.57;0.80;;;;;;;;;;5069089;28;20047;-63
2022/06/06 12:42:12;;;;;;;2.23;1.10;;;;;;;;;;5068537;28;20055;-63
2022/06/06 12:44:47;;;;;;;3.50;1.00;;;;;;;;;;5067211;28;20495;-63
2022/06/06 12:47:16;;;;;;;3.90;1.00;;;;;;;;;;5066879;28;20693;-63
2022/06/06 12:49:42;;;;;;;2.97;1.17;;;;;;;;;;5069164;28;20044;-63
2022/06/06 12:52:08;;;;;;;3.40;0.73;;;;;;;;;;5068543;28;20063;-63
2022/06/06 12:57:41;;;;;;;1.93;0.90;;;;;;;;;;5068710;28;20041;-63
2022/06/06 13:00:09;;;;;;;2.10;0.80;;;;;;;;;;5067539;28;20044;-63
2022/06/06 13:03:00;;;;;;;1.67;0.50;;;;;;;;;;5058357;28;20053;-63
2022/06/06 13:05:45;;;;;;;3.17;0.60;;;;;;;;;;5049116;28;20136;-63
2022/06/06 13:08:21;;;;;;;1.60;0.60;;;;;;;;;;5048455;28;20053;-63
2022/06/06 13:10:56;;;;;;;2.73;0.80;;;;;;;;;;5048337;28;20044;-63
2022/06/06 13:13:22;;;;;;;1.23;0.50;;;;;;;;;;5048627;28;20087;-63
2022/06/06 13:16:06;;;;;;;3.37;0.70;;;;;;;;;;5048308;28;20045;-63
2022/06/06 13:18:52;;;;;;;3.60;0.73;;;;;;;;;;5048442;28;20182;-63
2022/06/06 13:21:18;;;;;;;2.50;0.73;;;;;;;;;;5058077;28;20056;-63
2022/06/06 13:23:44;;;;;;;1.77;0.70;;;;;;;;;;5068421;28;20109;-63
2022/06/06 13:26:31;;;;;;;2.83;0.77;;;;;;;;;;5068118;28;20612;-62
2022/06/06 13:28:57;;;;;;;2.17;0.90;;;;;;;;;;5051213;28;20435;-62
2022/06/06 13:31:37;;;;;;;5.00;1.97;;;;;;;;;;5048014;28;20045;-63
2022/06/06 13:34:03;;;;;;;4.40;2.13;;;;;;;;;;5051461;28;20172;-63
2022/06/06 13:36:32;;;;;;;5.07;1.97;;;;;;;;;;5051983;28;20103;-63
2022/06/06 13:39:18;;;;;;;3.70;1.70;;;;;;;;;;5052187;28;20049;-64
2022/06/06 13:41:54;;;;;;;10.57;3.30;;;;;;;;;;5052447;28;20068;-65
2022/06/06 13:44:23;;;;;;;5.10;2.93;;;;;;;;;;5072122;28;20056;-64
2022/06/06 13:46:49;;;;;;;5.97;3.70;;;;;;;;;;5070613;28;20059;-64
2022/06/06 13:49:19;;;;;;;6.73;3.60;;;;;;;;;;5071545;28;20052;-64
2022/06/06 13:51:51;;;;;;;6.43;4.50;;;;;;;;;;5071996;28;20121;-64
2022/06/06 13:54:29;;;;;;;7.33;4.43;;;;;;;;;;5071606;28;20059;-64
2022/06/06 13:57:04;;;;;;;5.90;3.83;;;;;;;;;;5067669;28;20036;-64
2022/06/06 13:59:30;;;;;;;7.47;4.57;;;;;;;;;;5051359;28;20127;-64
2022/06/06 14:02:18;;;;;;;11.80;5.37;;;;;;;;;;5050088;28;20065;-64
2022/06/06 14:04:56;;;;;;;6.13;4.80;;;;;;;;;;5051765;28;20041;-64
2022/06/06 14:07:31;;;;;;;6.47;4.50;;;;;;;;;;5051706;28;20087;-64
2022/06/06 14:10:04;;;;;;;8.23;5.13;;;;;;;;;;5051898;28;20120;-64
2022/06/06 14:12:30;;;;;;;9.75;5.68;;;;;;;;;;5050236;28;20045;-64
2022/06/06 14:15:02;;;;;;;9.43;5.10;;;;;;;;;;5051508;28;20388;-64
2022/06/06 14:17:29;;;;;;;10.05;6.30;;;;;;;;;;5051866;28;20049;-64
2022/06/06 14:20:01;;;;;;;8.30;5.53;;;;;;;;;;5051540;28;20053;-64
2022/06/06 14:22:53;;;;;;;12.27;7.17;;;;;;;;;;5051737;28;20110;-64
2022/06/06 14:25:19;;;;;;;10.10;6.43;;;;;;;;;;5050423;28;20192;-64
2022/06/06 14:27:45;;;;;;;9.33;6.07;;;;;;;;;;5052889;28;20478;-63
2022/06/06 14:30:17;;;;;;;10.93;6.70;;;;;;;;;;5051464;28;20079;-63
2022/06/06 14:32:42;;;;;;;10.03;6.70;;;;;;;;;;5051647;28;20041;-64
2022/06/06 14:35:18;;;;;;;9.97;7.17;;;;;;;;;;5051290;28;20051;-64
2022/06/06 14:37:48;;;;;;;13.20;7.83;;;;;;;;;;5051112;28;20073;-63
2022/06/06 14:40:33;;;;;;;12.77;8.73;;;;;;;;;;5051034;28;20527;-63
2022/06/06 14:42:59;;;;;;;12.67;7.97;;;;;;;;;;5051217;28;20052;-64
2022/06/06 14:45:33;;;;;;;16.83;9.20;;;;;;;;;;5050560;28;20667;-63
2022/06/06 14:48:00;;;;;;;10.60;7.43;;;;;;;;;;5050954;28;20417;-64
2022/06/06 14:50:46;;;;;;;10.27;7.83;;;;;;;;;;5051418;28;20127;-63
2022/06/06 14:53:21;;;;;;;21.47;9.70;;;;;;;;;;5049766;28;20045;-64
2022/06/06 14:55:48;;;;;;;13.17;10.10;;;;;;;;;;5050496;28;20049;-64
2022/06/06 14:58:17;;;;;;;19.27;11.77;;;;;;;;;;5050852;28;20481;-64
2022/06/06 15:01:01;;;;;;;27.90;17.73;;;;;;;;;;5050722;28;20179;-64
2022/06/06 15:03:33;;;;;;;16.63;11.87;;;;;;;;;;5049414;28;20063;-63
2022/06/06 15:06:12;;;;;;;14.57;8.60;;;;;;;;;;5050823;28;20083;-64
2022/06/06 15:08:42;;;;;;;10.97;4.27;;;;;;;;;;5050841;28;20041;-64
2022/06/06 15:11:12;;;;;;;8.63;4.27;;;;;;;;;;5058018;28;20032;-64
2022/06/06 15:13:39;;;;;;;14.93;4.63;;;;;;;;;;5070369;28;20106;-63
2022/06/06 15:16:06;;;;;;;8.73;2.33;;;;;;;;;;5070488;28;20051;-63
2022/06/06 15:18:40;;;;;;;6.30;2.60;;;;;;;;;;5059646;28;20410;-64
2022/06/06 15:21:07;;;;;;;3.87;2.23;;;;;;;;;;5069783;28;20080;-64
2022/06/06 15:23:33;;;;;;;6.67;1.90;;;;;;;;;;5069827;28;20083;-64
2022/06/06 15:26:01;;;;;;;5.67;1.73;;;;;;;;;;5069639;28;20044;-64
2022/06/06 15:28:31;;;;;;;6.93;1.90;;;;;;;;;;5070359;28;20052;-64
2022/06/06 15:31:15;;;;;;;4.53;1.93;;;;;;;;;;5070226;28;20041;-64